createdAt,value
2019-05-26T00:00:12.201Z,99.90
2019-05-26T00:02:44.921Z,99.90
2019-05-26T00:05:18.185Z,99.90
2019-05-26T00:07:53.796Z,99.90
2019-05-26T00:10:26.508Z,99.90
2019-05-26T00:12:59.745Z,99.90
2019-05-26T00:15:31.989Z,99.90
2019-05-26T00:18:05.559Z,99.90
2019-05-26T00:20:38.777Z,99.90
2019-05-26T00:23:11.465Z,99.90
2019-05-26T00:25:43.798Z,99.90
2019-05-26T00:28:16.161Z,99.90
2019-05-26T00:30:49.073Z,99.90
2019-05-26T00:33:21.350Z,99.90
2019-05-26T00:35:54.125Z,99.90
2019-05-26T00:38:26.654Z,99.90
2019-05-26T00:40:58.956Z,99.90
2019-05-26T00:43:31.133Z,99.90
2019-05-26T00:46:03.749Z,99.90
2019-05-26T00:48:36.453Z,99.90
2019-05-26T00:51:08.937Z,99.90
2019-05-26T00:53:41.585Z,99.90
2019-05-26T00:56:14.953Z,99.90
2019-05-26T00:58:49.956Z,99.90
2019-05-26T01:01:22.770Z,99.90
2019-05-26T01:03:55.029Z,99.90
2019-05-26T01:06:27.492Z,99.90
2019-05-26T01:08:59.962Z,99.90
2019-05-26T01:11:32.746Z,99.90
2019-05-26T01:14:04.996Z,99.90
2019-05-26T01:16:37.410Z,99.90
2019-05-26T01:19:10.089Z,99.90
2019-05-26T01:21:43.609Z,99.90
2019-05-26T01:24:16.015Z,99.90
2019-05-26T01:26:49.042Z,99.90
2019-05-26T01:29:22.219Z,99.90
2019-05-26T01:31:54.453Z,99.90
2019-05-26T01:34:26.996Z,99.90
2019-05-26T01:36:59.878Z,99.90
2019-05-26T01:39:33.034Z,99.90
2019-05-26T01:42:05.571Z,99.90
2019-05-26T01:44:38.690Z,99.90
2019-05-26T01:47:11.621Z,99.90
2019-05-26T01:49:45.220Z,99.90
2019-05-26T01:52:17.969Z,99.90
2019-05-26T01:54:50.788Z,99.90
2019-05-26T01:57:23.646Z,99.90
2019-05-26T01:59:56.561Z,99.90
2019-05-26T02:02:29.672Z,99.90
2019-05-26T02:05:02.430Z,99.90
2019-05-26T02:07:35.522Z,99.90
2019-05-26T02:10:08.952Z,99.90
2019-05-26T02:12:41.921Z,99.90
2019-05-26T02:15:14.937Z,99.90
2019-05-26T02:17:47.143Z,99.90
2019-05-26T02:20:19.830Z,99.90
2019-05-26T02:22:53.145Z,99.90
2019-05-26T02:25:26.361Z,99.90
2019-05-26T02:27:58.824Z,99.90
2019-05-26T02:30:31.641Z,99.90
2019-05-26T02:33:04.050Z,99.90
2019-05-26T02:35:36.829Z,99.90
2019-05-26T02:38:09.726Z,99.90
2019-05-26T02:40:42.608Z,99.90
2019-05-26T02:43:15.198Z,99.90
2019-05-26T02:45:48.118Z,99.90
2019-05-26T02:48:20.426Z,99.90
2019-05-26T02:50:53.230Z,99.90
2019-05-26T02:53:25.610Z,99.90
2019-05-26T02:55:58.194Z,99.90
2019-05-26T02:58:30.859Z,99.90
2019-05-26T03:01:04.321Z,99.90
2019-05-26T03:03:36.541Z,99.90
2019-05-26T03:06:10.740Z,99.90
2019-05-26T03:08:44.189Z,99.90
2019-05-26T03:11:17.077Z,99.90
2019-05-26T03:13:52.087Z,99.90
2019-05-26T03:16:24.425Z,99.90
2019-05-26T03:18:58.233Z,99.90
2019-05-26T03:21:33.058Z,99.90
2019-05-26T03:24:07.382Z,99.90
2019-05-26T03:26:40.127Z,99.90
2019-05-26T03:29:13.538Z,99.90
2019-05-26T03:31:45.975Z,99.90
2019-05-26T03:34:19.214Z,99.90
2019-05-26T03:36:51.802Z,99.90
2019-05-26T03:39:42.335Z,99.90
2019-05-26T03:41:58.901Z,99.90
2019-05-26T03:44:31.471Z,99.90
2019-05-26T03:47:04.670Z,99.90
2019-05-26T03:49:36.841Z,99.90
2019-05-26T03:52:09.893Z,99.90
2019-05-26T03:54:42.777Z,99.90
2019-05-26T03:57:15.081Z,99.90
2019-05-26T03:59:47.572Z,99.90
2019-05-26T04:02:19.946Z,99.90
2019-05-26T04:04:52.510Z,99.90
2019-05-26T04:07:25.056Z,99.90
2019-05-26T04:10:05.083Z,99.90
2019-05-26T04:12:32.970Z,99.90
2019-05-26T04:15:05.188Z,99.90
2019-05-26T04:17:37.543Z,99.90
2019-05-26T04:20:10.296Z,99.90
2019-05-26T04:22:43.469Z,99.90
2019-05-26T04:25:16.191Z,99.90
2019-05-26T04:27:48.625Z,99.90
2019-05-26T04:30:21.055Z,99.90
2019-05-26T04:32:53.625Z,99.90
2019-05-26T04:35:26.201Z,99.90
2019-05-26T04:37:58.859Z,99.90
2019-05-26T04:40:32.992Z,99.90
2019-05-26T04:43:05.576Z,99.90
2019-05-26T04:45:38.253Z,99.90
2019-05-26T04:48:11.343Z,99.90
2019-05-26T04:50:44.532Z,99.90
2019-05-26T04:53:17.395Z,99.90
2019-05-26T04:55:49.997Z,99.90
2019-05-26T04:58:23.142Z,99.90
2019-05-26T05:00:55.338Z,99.90
2019-05-26T05:03:28.718Z,99.90
2019-05-26T05:06:01.023Z,99.90
2019-05-26T05:08:33.578Z,99.90
2019-05-26T05:11:06.707Z,99.90
2019-05-26T05:13:39.158Z,99.90
2019-05-26T05:16:11.804Z,99.90
2019-05-26T05:18:45.233Z,99.90
2019-05-26T05:21:17.911Z,99.90
2019-05-26T05:23:50.598Z,99.90
2019-05-26T05:26:23.563Z,99.90
2019-05-26T05:28:56.262Z,99.90
2019-05-26T05:31:28.625Z,99.90
2019-05-26T05:34:01.321Z,99.90
2019-05-26T05:36:33.571Z,99.90
2019-05-26T05:39:08.132Z,99.90
2019-05-26T05:41:40.372Z,99.90
2019-05-26T05:44:13.219Z,99.90
2019-05-26T05:46:45.848Z,99.90
2019-05-26T05:49:18.272Z,99.90
2019-05-26T05:51:50.925Z,99.90
2019-05-26T05:54:23.877Z,99.90
2019-05-26T05:56:56.184Z,99.90
2019-05-26T05:59:28.922Z,99.90
2019-05-26T06:02:01.635Z,99.90
2019-05-26T06:04:34.312Z,99.90
2019-05-26T06:07:06.969Z,99.90
2019-05-26T06:09:39.386Z,99.90
2019-05-26T06:12:12.543Z,99.90
2019-05-26T06:14:45.622Z,99.90
2019-05-26T06:17:18.230Z,99.90
2019-05-26T06:19:50.529Z,99.90
2019-05-26T06:22:23.462Z,99.90
2019-05-26T06:24:55.821Z,99.90
2019-05-26T06:27:28.221Z,99.90
2019-05-26T06:30:00.929Z,99.90
2019-05-26T06:32:33.557Z,99.90
2019-05-26T06:35:06.865Z,99.90
2019-05-26T06:37:42.201Z,99.90
2019-05-26T06:40:14.877Z,99.90
2019-05-26T06:42:47.476Z,99.90
2019-05-26T06:45:20.450Z,99.90
2019-05-26T06:47:53.509Z,99.90
2019-05-26T06:50:25.871Z,99.90
2019-05-26T06:52:58.317Z,99.90
2019-05-26T06:55:31.202Z,99.90
2019-05-26T06:58:03.950Z,99.90
2019-05-26T07:00:37.086Z,99.90
2019-05-26T07:03:10.142Z,99.90
2019-05-26T07:05:42.437Z,99.90
2019-05-26T07:08:17.229Z,99.90
2019-05-26T07:10:49.493Z,99.90
2019-05-26T07:13:22.073Z,99.90
2019-05-26T07:15:54.477Z,99.90
2019-05-26T07:18:27.128Z,99.90
2019-05-26T07:20:59.676Z,99.90
2019-05-26T07:23:32.122Z,99.90
2019-05-26T07:26:04.758Z,99.90
2019-05-26T07:28:37.841Z,99.90
2019-05-26T07:31:10.641Z,99.90
2019-05-26T07:33:43.267Z,99.90
2019-05-26T07:36:18.132Z,99.90
2019-05-26T07:38:50.457Z,99.90
2019-05-26T07:43:59.136Z,99.90
2019-05-26T07:46:31.612Z,99.90
2019-05-26T07:49:04.557Z,99.90
2019-05-26T07:51:36.883Z,99.90
2019-05-26T07:54:25.032Z,99.90
2019-05-26T07:56:43.764Z,99.90
2019-05-26T07:59:16.568Z,99.90
2019-05-26T08:01:49.411Z,99.90
2019-05-26T08:04:22.122Z,99.90
2019-05-26T08:06:54.727Z,99.90
2019-05-26T08:09:26.967Z,99.90
2019-05-26T08:11:59.921Z,99.90
2019-05-26T08:14:32.430Z,99.90
2019-05-26T08:17:05.210Z,99.90
2019-05-26T08:19:37.710Z,99.90
2019-05-26T08:22:10.486Z,99.90
2019-05-26T08:24:43.299Z,99.90
2019-05-26T08:27:15.982Z,99.90
2019-05-26T08:29:48.669Z,99.90
2019-05-26T08:32:21.194Z,99.90
2019-05-26T08:34:53.726Z,99.90
2019-05-26T08:37:25.970Z,99.90
2019-05-26T08:40:00.249Z,99.90
2019-05-26T08:42:44.178Z,99.90
2019-05-26T08:45:07.454Z,99.90
2019-05-26T08:47:40.027Z,99.90
2019-05-26T08:50:13.000Z,99.90
2019-05-26T08:52:45.522Z,99.90
2019-05-26T08:55:18.101Z,99.90
2019-05-26T08:57:50.956Z,99.90
2019-05-26T09:00:23.441Z,99.90
2019-05-26T09:02:56.068Z,99.90
2019-05-26T09:05:29.102Z,99.90
2019-05-26T09:08:01.324Z,99.90
2019-05-26T09:10:33.841Z,99.90
2019-05-26T09:13:05.929Z,99.90
2019-05-26T09:15:38.968Z,99.90
2019-05-26T09:18:11.986Z,99.90
2019-05-26T09:20:45.348Z,99.90
2019-05-26T09:23:17.755Z,99.90
2019-05-26T09:25:50.541Z,99.90
2019-05-26T09:28:23.673Z,99.90
2019-05-26T09:30:56.916Z,99.90
2019-05-26T09:33:29.872Z,99.90
2019-05-26T09:36:02.345Z,99.90
2019-05-26T09:38:34.966Z,99.90
2019-05-26T09:41:07.506Z,99.90
2019-05-26T09:43:40.269Z,99.90
2019-05-26T09:46:13.305Z,99.90
2019-05-26T09:48:45.749Z,99.90
2019-05-26T09:51:18.358Z,99.90
2019-05-26T09:54:01.197Z,99.90
2019-05-26T09:56:24.974Z,99.90
2019-05-26T09:58:57.830Z,99.90
2019-05-26T10:01:30.815Z,99.90
2019-05-26T10:04:03.397Z,99.90
2019-05-26T10:06:36.069Z,99.90
2019-05-26T10:09:10.002Z,99.90
2019-05-26T10:11:42.872Z,99.90
2019-05-26T10:14:15.342Z,99.90
2019-05-26T10:16:47.918Z,99.90
2019-05-26T10:19:20.329Z,99.90
2019-05-26T10:21:53.077Z,99.90
2019-05-26T10:24:25.250Z,99.90
2019-05-26T10:26:57.494Z,99.90
2019-05-26T10:29:30.159Z,99.90
2019-05-26T10:32:03.485Z,99.90
2019-05-26T10:34:36.823Z,99.90
2019-05-26T10:37:10.245Z,99.90
2019-05-26T10:39:44.996Z,99.90
2019-05-26T10:42:16.453Z,99.90
2019-05-26T10:44:49.346Z,99.90
2019-05-26T10:47:21.919Z,99.90
2019-05-26T10:49:54.509Z,99.90
2019-05-26T10:52:27.187Z,99.90
2019-05-26T10:54:59.823Z,99.90
2019-05-26T10:57:32.033Z,99.90
2019-05-26T11:00:04.998Z,99.90
2019-05-26T11:02:37.120Z,99.90
2019-05-26T11:05:10.790Z,99.90
2019-05-26T11:07:43.460Z,99.90
2019-05-26T11:10:15.961Z,99.90
2019-05-26T11:12:48.221Z,99.90
2019-05-26T11:15:21.808Z,99.90
2019-05-26T11:17:54.678Z,99.90
2019-05-26T11:20:27.473Z,99.90
2019-05-26T11:23:00.672Z,99.90
2019-05-26T11:25:32.970Z,99.90
2019-05-26T11:28:05.458Z,99.90
2019-05-26T11:30:39.594Z,99.90
2019-05-26T11:33:12.590Z,99.90
2019-05-26T11:35:45.793Z,99.90
2019-05-26T11:38:19.035Z,99.90
2019-05-26T11:40:51.562Z,99.90
2019-05-26T11:43:24.256Z,99.90
2019-05-26T11:45:56.814Z,99.90
2019-05-26T11:48:29.522Z,99.90
2019-05-26T11:51:02.369Z,99.90
2019-05-26T11:53:35.089Z,99.90
2019-05-26T11:56:07.857Z,99.90
2019-05-26T11:58:40.472Z,99.90
2019-05-26T12:01:12.862Z,99.90
2019-05-26T12:03:45.591Z,99.90
2019-05-26T12:06:18.546Z,99.90
2019-05-26T12:08:51.421Z,99.90
2019-05-26T12:11:23.839Z,99.90
2019-05-26T12:13:56.314Z,99.90
2019-05-26T12:16:29.022Z,99.90
2019-05-26T12:19:01.578Z,99.90
2019-05-26T12:21:34.009Z,99.90
2019-05-26T12:24:06.726Z,99.90
2019-05-26T12:26:39.778Z,99.90
2019-05-26T12:29:12.386Z,99.90
2019-05-26T12:31:45.062Z,99.90
2019-05-26T12:34:19.908Z,99.90
2019-05-26T12:36:52.050Z,99.90
2019-05-26T12:39:27.417Z,99.90
2019-05-26T12:42:00.502Z,99.90
2019-05-26T12:44:33.074Z,99.90
2019-05-26T12:47:05.738Z,99.90
2019-05-26T12:49:38.250Z,99.90
2019-05-26T12:52:11.118Z,99.90
2019-05-26T12:54:43.806Z,99.90
2019-05-26T12:57:16.264Z,99.90
2019-05-26T12:59:49.221Z,99.90
2019-05-26T13:02:21.918Z,99.90
2019-05-26T13:04:54.937Z,99.90
2019-05-26T13:07:27.165Z,99.90
2019-05-26T13:10:00.145Z,99.90
2019-05-26T13:12:32.768Z,99.90
2019-05-26T13:15:06.354Z,99.90
2019-05-26T13:17:39.046Z,99.90
2019-05-26T13:20:12.441Z,99.90
2019-05-26T13:22:44.969Z,99.90
2019-05-26T13:25:19.430Z,99.90
2019-05-26T13:27:52.625Z,99.90
2019-05-26T13:30:25.469Z,99.90
2019-05-26T13:32:57.985Z,99.90
2019-05-26T13:35:30.814Z,99.90
2019-05-26T13:38:03.562Z,99.90
2019-05-26T13:40:36.342Z,99.90
2019-05-26T13:43:08.654Z,99.90
2019-05-26T13:45:41.593Z,99.90
2019-05-26T13:48:15.102Z,99.90
2019-05-26T13:50:47.596Z,99.90
2019-05-26T13:53:19.791Z,99.90
2019-05-26T13:55:52.338Z,99.90
2019-05-26T13:58:25.199Z,99.90
2019-05-26T14:00:58.650Z,99.90
2019-05-26T14:03:31.157Z,99.90
2019-05-26T14:06:03.882Z,99.90
2019-05-26T14:08:36.423Z,99.90
2019-05-26T14:11:09.639Z,99.90
2019-05-26T14:13:42.236Z,99.90
2019-05-26T14:16:15.110Z,99.90
2019-05-26T14:18:47.966Z,99.90
2019-05-26T14:21:20.433Z,99.90
2019-05-26T14:23:52.517Z,99.90
2019-05-26T14:26:24.925Z,99.90
2019-05-26T14:28:57.458Z,99.90
2019-05-26T14:31:30.026Z,99.90
2019-05-26T14:34:02.501Z,99.90
2019-05-26T14:36:35.765Z,99.90
2019-05-26T14:39:10.825Z,99.90
2019-05-26T14:41:43.587Z,99.90
2019-05-26T14:44:16.261Z,99.90
2019-05-26T14:46:48.811Z,99.90
2019-05-26T14:49:21.764Z,99.90
2019-05-26T14:51:54.526Z,99.90
2019-05-26T14:54:27.507Z,99.90
2019-05-26T14:57:00.010Z,99.90
2019-05-26T14:59:32.580Z,99.90
2019-05-26T15:02:05.161Z,99.90
2019-05-26T15:04:37.839Z,99.90
2019-05-26T15:07:10.076Z,99.90
2019-05-26T15:09:42.650Z,99.90
2019-05-26T15:12:15.266Z,99.90
2019-05-26T15:14:47.669Z,99.90
2019-05-26T15:17:20.195Z,99.90
2019-05-26T15:19:52.581Z,99.90
2019-05-26T15:22:25.720Z,99.90
2019-05-26T15:24:58.453Z,99.90
2019-05-26T15:27:31.569Z,99.90
2019-05-26T15:30:05.661Z,99.90
2019-05-26T15:32:38.072Z,99.90
2019-05-26T15:35:12.142Z,99.90
2019-05-26T15:37:45.088Z,99.90
2019-05-26T15:40:18.006Z,99.90
2019-05-26T15:42:50.725Z,99.90
2019-05-26T15:45:23.994Z,99.90
2019-05-26T15:47:57.281Z,99.90
2019-05-26T15:50:30.069Z,99.90
2019-05-26T15:53:03.198Z,99.90
2019-05-26T15:55:37.710Z,99.90
2019-05-26T15:58:09.642Z,99.90
2019-05-26T16:00:42.218Z,99.90
2019-05-26T16:03:14.546Z,99.90
2019-05-26T16:05:47.067Z,99.90
2019-05-26T16:08:19.486Z,99.90
2019-05-26T16:10:51.715Z,99.90
2019-05-26T16:13:24.212Z,99.90
2019-05-26T16:15:57.240Z,99.90
2019-05-26T16:18:29.640Z,99.90
2019-05-26T16:21:03.483Z,99.90
2019-05-26T16:23:36.433Z,99.90
2019-05-26T16:26:08.897Z,99.90
2019-05-26T16:28:41.731Z,99.90
2019-05-26T16:31:14.394Z,99.90
2019-05-26T16:33:47.198Z,99.90
2019-05-26T16:36:21.379Z,99.90
2019-05-26T16:38:54.256Z,99.90
2019-05-26T16:41:26.865Z,99.90
2019-05-26T16:43:59.210Z,99.90
2019-05-26T16:46:31.826Z,99.90
2019-05-26T16:49:04.669Z,99.90
2019-05-26T16:51:37.041Z,99.90
2019-05-26T16:54:09.721Z,99.90
2019-05-26T16:56:42.110Z,99.90
2019-05-26T16:59:14.874Z,99.90
2019-05-26T17:01:47.664Z,99.90
2019-05-26T17:04:20.854Z,99.90
2019-05-26T17:06:53.732Z,99.90
2019-05-26T17:09:26.322Z,99.90
2019-05-26T17:11:58.281Z,99.90
2019-05-26T17:14:30.546Z,99.90
2019-05-26T17:17:14.380Z,99.90
2019-05-26T17:19:36.761Z,99.90
2019-05-26T17:22:08.816Z,99.90
2019-05-26T17:24:41.406Z,99.90
2019-05-26T17:27:13.733Z,99.90
2019-05-26T17:29:46.048Z,99.90
2019-05-26T17:32:19.830Z,99.90
2019-05-26T17:34:52.685Z,99.90
2019-05-26T17:37:25.386Z,99.90
2019-05-26T17:39:58.474Z,99.90
2019-05-26T17:42:31.213Z,99.60
2019-05-26T17:45:03.689Z,99.90
2019-05-26T17:47:36.671Z,99.90
2019-05-26T17:50:10.903Z,99.90
2019-05-26T17:52:43.018Z,99.90
2019-05-26T17:55:15.573Z,99.90
2019-05-26T17:57:48.170Z,99.90
2019-05-26T18:00:21.118Z,99.90
2019-05-26T18:02:53.321Z,97.00
2019-05-26T18:05:26.095Z,97.90
2019-05-26T18:07:58.944Z,95.00
2019-05-26T18:10:31.314Z,96.40
2019-05-26T18:13:04.471Z,96.70
2019-05-26T18:15:37.622Z,98.50
2019-05-26T18:18:10.470Z,97.30
2019-05-26T18:20:43.391Z,98.10
2019-05-26T18:23:15.593Z,97.20
2019-05-26T18:25:47.797Z,96.50
2019-05-26T18:28:20.172Z,94.70
2019-05-26T18:30:52.868Z,96.20
2019-05-26T18:33:25.493Z,97.70
2019-05-26T18:35:58.411Z,94.50
2019-05-26T18:38:30.726Z,93.50
2019-05-26T18:41:03.280Z,95.40
2019-05-26T18:43:35.674Z,95.10
2019-05-26T18:46:08.549Z,96.80
2019-05-26T18:48:42.019Z,95.00
2019-05-26T18:51:15.054Z,90.80
2019-05-26T18:53:48.334Z,88.50
2019-05-26T18:56:21.323Z,90.30
2019-05-26T18:58:53.621Z,91.00
2019-05-26T19:01:26.089Z,89.50
2019-05-26T19:03:58.649Z,86.90
2019-05-26T19:06:31.180Z,89.80
2019-05-26T19:09:04.122Z,84.10
2019-05-26T19:11:36.951Z,83.40
2019-05-26T19:14:17.652Z,79.80
2019-05-26T19:16:50.360Z,77.20
2019-05-26T19:19:23.019Z,78.50
2019-05-26T19:21:55.216Z,81.50
2019-05-26T19:24:28.240Z,80.70
2019-05-26T19:27:00.751Z,80.60
2019-05-26T19:29:33.416Z,82.70
2019-05-26T19:32:05.940Z,76.90
2019-05-26T19:34:38.305Z,79.80
2019-05-26T19:37:10.940Z,78.50
2019-05-26T19:39:44.149Z,80.40
2019-05-26T19:42:17.397Z,80.90
2019-05-26T19:44:49.785Z,76.60
2019-05-26T19:47:22.394Z,79.70
2019-05-26T19:49:55.173Z,82.60
2019-05-26T19:52:27.819Z,90.00
2019-05-26T19:55:00.123Z,85.30
2019-05-26T19:57:32.529Z,89.20
2019-05-26T20:00:06.780Z,89.60
2019-05-26T20:02:39.666Z,91.00
2019-05-26T20:05:13.093Z,92.70
2019-05-26T20:07:45.773Z,92.90
2019-05-26T20:10:19.607Z,91.60
2019-05-26T20:12:52.143Z,91.70
2019-05-26T20:15:24.725Z,87.60
2019-05-26T20:17:57.254Z,81.90
2019-05-26T20:20:29.277Z,77.10
2019-05-26T20:23:02.572Z,76.10
2019-05-26T20:25:35.553Z,78.60
2019-05-26T20:28:08.338Z,74.40
2019-05-26T20:30:40.821Z,70.10
2019-05-26T20:33:13.305Z,66.80
2019-05-26T20:35:46.139Z,71.00
2019-05-26T20:38:19.326Z,68.10
2019-05-26T20:40:52.080Z,65.10
2019-05-26T20:43:25.103Z,65.50
2019-05-26T20:45:57.814Z,65.00
2019-05-26T20:48:30.428Z,62.20
2019-05-26T20:51:02.877Z,64.10
2019-05-26T20:53:35.649Z,66.70
2019-05-26T20:56:07.941Z,64.40
2019-05-26T20:58:40.791Z,70.20
2019-05-26T21:01:14.300Z,66.20
2019-05-26T21:03:46.987Z,61.30
2019-05-26T21:06:19.361Z,65.20
2019-05-26T21:08:54.185Z,64.00
2019-05-26T21:11:27.257Z,63.10
2019-05-26T21:13:59.950Z,64.40
2019-05-26T21:19:08.486Z,61.90
2019-05-26T21:21:41.162Z,62.90
2019-05-26T21:24:14.056Z,60.50
2019-05-26T21:26:46.844Z,61.10
2019-05-26T21:29:19.261Z,59.20
2019-05-26T21:31:52.498Z,60.00
2019-05-26T21:34:25.153Z,59.90
2019-05-26T21:36:57.777Z,59.30
2019-05-26T21:39:31.150Z,59.60
2019-05-26T21:42:03.749Z,59.50
2019-05-26T21:44:36.718Z,60.80
2019-05-26T21:47:09.845Z,59.50
2019-05-26T21:49:42.798Z,60.70
2019-05-26T21:52:15.169Z,58.50
2019-05-26T21:54:48.184Z,59.60
2019-05-26T21:57:20.754Z,59.70
2019-05-26T21:59:53.377Z,60.10
2019-05-26T22:02:25.698Z,59.00
2019-05-26T22:04:58.169Z,59.90
2019-05-26T22:07:30.537Z,59.60
2019-05-26T22:10:03.005Z,59.20
2019-05-26T22:12:35.905Z,58.20
2019-05-26T22:15:09.186Z,58.70
2019-05-26T22:17:42.139Z,57.20
2019-05-26T22:20:15.720Z,58.20
2019-05-26T22:23:10.230Z,57.20
2019-05-26T22:25:43.804Z,57.70
2019-05-26T22:28:16.768Z,57.00
2019-05-26T22:30:50.629Z,57.50
2019-05-26T22:33:22.959Z,58.30
2019-05-26T22:35:55.820Z,57.90
2019-05-26T22:41:10.389Z,57.70
2019-05-26T22:43:57.923Z,58.30
2019-05-26T22:46:45.350Z,59.40
2019-05-26T22:49:26.965Z,59.40
2019-05-26T22:52:04.289Z,59.50
2019-05-26T22:55:00.709Z,58.30
2019-05-26T22:57:54.946Z,58.80
2019-05-26T23:00:38.874Z,58.20
2019-05-26T23:03:25.722Z,58.90
2019-05-26T23:06:13.003Z,58.50
2019-05-26T23:09:14.261Z,58.50
2019-05-26T23:11:47.591Z,59.30
2019-05-26T23:14:44.736Z,58.80
2019-05-26T23:17:25.894Z,58.70
2019-05-26T23:19:58.213Z,59.00
2019-05-26T23:22:53.106Z,57.70
2019-05-26T23:25:32.413Z,59.60
2019-05-26T23:28:31.707Z,59.60
2019-05-26T23:31:45.391Z,60.20
2019-05-26T23:34:17.705Z,61.60
2019-05-26T23:37:10.538Z,62.80
2019-05-26T23:40:19.211Z,61.30
2019-05-26T23:42:51.986Z,62.30
2019-05-26T23:45:24.862Z,61.60
2019-05-26T23:48:10.506Z,62.50
2019-05-26T23:50:49.371Z,63.00
2019-05-26T23:53:33.898Z,63.70
2019-05-26T23:56:15.462Z,64.40
2019-05-26T23:59:08.336Z,65.20
